Terminal Aerodrome Forecast
Issued by NWS Wilmington, OH

Current Version | Previous Version | Graphics & Text | Print | Product List | Glossary On
Versions: 1 2 3 4 5 6 7 8 9 10 11 12 13 14 15 16 17 18
000
FTUS41 KILN 292341
TAFILN
TAF
KILN 292341Z 3000/3024 24007KT P6SM VCTS BKN045CB
     FM300100 24005KT P6SM SCT050 BKN100
     FM300500 28004KT P6SM SKC
     FM301500 33008KT P6SM SCT050=

USA.gov is the U.S. government's official web portal to all federal, state and local government web resources and services.